Time;durP1;ratioP1;P1;durP2;ratioP2;P2;SDS_P1;SDS_P2;PMS_P1;PMS_P2;Temp;Humidity;BMP_temperature;BMP_pressure;BME280_temperature;BME280_humidity;BME280_pressure;Samples;Min_cycle;Max_cycle;Signal;HPM_P1;HPM_P2
2021/01/22 00:02:18;;;;;;;1.10;0.65;;;10.50;9.50;;;;;;4854621;29;20065;-72
2021/01/22 00:04:45;;;;;;;0.98;0.60;;;10.40;10.40;;;;;;4859036;29;20866;-72
2021/01/22 00:07:12;;;;;;;0.80;0.70;;;10.10;11.50;;;;;;4858143;29;20049;-72
2021/01/22 00:09:40;;;;;;;1.00;0.70;;;10.00;11.40;;;;;;4859529;29;20422;-71
2021/01/22 00:12:07;;;;;;;1.40;0.73;;;9.90;12.80;;;;;;4855940;29;20693;-73
2021/01/22 00:14:34;;;;;;;1.63;0.70;;;9.90;12.70;;;;;;4857862;29;20058;-72
2021/01/22 00:17:02;;;;;;;1.00;0.60;;;9.90;12.30;;;;;;4857123;29;20049;-70
2021/01/22 00:19:31;;;;;;;1.23;0.70;;;9.80;12.70;;;;;;4860111;29;20077;-72
2021/01/22 00:21:59;;;;;;;0.90;0.60;;;9.70;13.30;;;;;;4857358;29;20131;-71
2021/01/22 00:24:27;;;;;;;1.30;0.60;;;9.90;12.90;;;;;;4856707;29;20421;-72
2021/01/22 00:26:54;;;;;;;1.67;0.63;;;9.80;13.60;;;;;;4860088;29;20054;-72
2021/01/22 00:29:21;;;;;;;1.10;0.63;;;9.70;14.30;;;;;;4863902;29;20057;-72
2021/01/22 00:31:49;;;;;;;1.08;0.68;;;9.60;14.50;;;;;;4859197;29;20118;-70
2021/01/22 00:34:18;;;;;;;1.20;0.60;;;9.60;14.80;;;;;;4856755;29;20148;-72
2021/01/22 00:36:46;;;;;;;1.27;0.70;;;9.70;14.90;;;;;;4859338;29;20057;-72
2021/01/22 00:39:12;;;;;;;0.90;0.60;;;9.60;14.80;;;;;;4857874;29;20448;-72
2021/01/22 00:41:40;;;;;;;2.47;0.73;;;9.60;15.20;;;;;;4856503;29;20057;-72
2021/01/22 00:44:07;;;;;;;0.50;0.40;;;9.40;15.80;;;;;;4854803;29;20128;-72
2021/01/22 00:46:34;;;;;;;1.58;0.55;;;9.50;15.70;;;;;;4857522;29;20148;-72
2021/01/22 00:49:03;;;;;;;0.57;0.50;;;9.40;16.30;;;;;;4856396;29;20065;-72
2021/01/22 00:51:30;;;;;;;0.80;0.60;;;9.30;17.00;;;;;;4860623;29;20075;-72
2021/01/22 00:53:58;;;;;;;3.42;0.88;;;9.20;17.60;;;;;;4854462;29;20588;-72
2021/01/22 00:56:26;;;;;;;1.88;1.15;;;9.20;17.90;;;;;;4855751;29;20057;-73
2021/01/22 00:58:53;;;;;;;1.42;1.17;;;9.00;18.70;;;;;;4858634;29;20609;-72
2021/01/22 01:01:20;;;;;;;1.17;0.65;;;8.90;18.60;;;;;;4858113;29;20400;-73
2021/01/22 01:03:48;;;;;;;0.90;0.60;;;8.80;19.20;;;;;;4854481;29;20514;-71
2021/01/22 01:06:15;;;;;;;0.68;0.45;;;8.80;19.40;;;;;;4859102;29;20128;-71
2021/01/22 01:08:42;;;;;;;2.05;0.63;;;8.90;18.60;;;;;;4857958;29;20168;-72
2021/01/22 01:11:10;;;;;;;1.38;0.70;;;9.00;18.70;;;;;;4856687;29;20132;-72
2021/01/22 01:13:38;;;;;;;1.67;0.75;;;8.90;18.60;;;;;;4853504;29;20069;-71
2021/01/22 01:16:06;;;;;;;0.63;0.50;;;8.90;18.60;;;;;;4857727;29;20084;-72
2021/01/22 01:18:35;;;;;;;2.25;0.47;;;9.00;18.70;;;;;;4856467;29;20136;-70
2021/01/22 01:21:02;;;;;;;2.10;0.50;;;8.90;18.60;;;;;;4858787;29;20080;-71
2021/01/22 01:23:31;;;;;;;0.90;0.40;;;9.00;18.00;;;;;;4853197;29;20136;-71
2021/01/22 01:25:58;;;;;;;1.17;0.60;;;9.00;17.80;;;;;;4857523;29;20148;-73
2021/01/22 01:28:26;;;;;;;1.13;0.55;;;8.90;18.30;;;;;;4856229;29;20049;-72
2021/01/22 01:30:53;;;;;;;0.77;0.50;;;8.90;18.40;;;;;;4860829;29;20049;-73
2021/01/22 01:33:20;;;;;;;0.65;0.40;;;9.00;17.30;;;;;;4854253;29;20049;-73
2021/01/22 01:35:51;;;;;;;0.80;0.50;;;9.00;17.40;;;;;;4856939;29;20093;-73
2021/01/22 01:38:18;;;;;;;0.70;0.57;;;8.90;17.40;;;;;;4858419;29;20116;-71
2021/01/22 01:40:45;;;;;;;1.42;0.52;;;9.00;17.60;;;;;;4857759;29;20121;-73
2021/01/22 01:43:13;;;;;;;0.63;0.60;;;9.10;16.50;;;;;;4857186;29;20134;-73
2021/01/22 01:45:41;;;;;;;0.70;0.50;;;8.90;17.20;;;;;;4859720;29;20617;-74
2021/01/22 01:48:10;;;;;;;2.20;0.90;;;9.00;16.90;;;;;;4854560;29;20086;-71
2021/01/22 01:50:39;;;;;;;1.20;0.50;;;9.00;16.80;;;;;;4860027;29;20486;-74
2021/01/22 01:53:07;;;;;;;1.35;1.25;;;9.00;16.50;;;;;;4855075;29;20053;-72
2021/01/22 01:55:35;;;;;;;0.70;0.40;;;8.90;16.80;;;;;;4857087;29;20057;-74
2021/01/22 01:58:03;;;;;;;1.52;0.50;;;8.90;17.00;;;;;;4857390;29;20049;-73
2021/01/22 02:00:30;;;;;;;0.70;0.50;;;8.90;16.70;;;;;;4857630;29;20055;-73
2021/01/22 02:02:58;;;;;;;1.65;0.57;;;8.90;16.70;;;;;;4856206;29;21345;-71
2021/01/22 02:05:25;;;;;;;5.95;0.77;;;9.00;16.00;;;;;;4860741;29;20091;-71
2021/01/22 02:07:52;;;;;;;0.63;0.40;;;8.90;16.40;;;;;;4855391;29;20061;-74
2021/01/22 02:10:20;;;;;;;0.40;0.40;;;8.90;17.10;;;;;;4857657;29;20053;-72
2021/01/22 02:12:48;;;;;;;1.77;0.45;;;9.00;16.20;;;;;;4856443;29;20057;-71
2021/01/22 02:15:16;;;;;;;1.00;0.40;;;8.90;16.70;;;;;;4854516;29;20576;-73
2021/01/22 02:17:45;;;;;;;1.13;0.47;;;8.90;16.80;;;;;;4855437;29;20479;-72
2021/01/22 02:20:40;;;;;;;0.50;0.40;;;9.00;16.40;;;;;;4858594;29;20045;-73
2021/01/22 02:23:09;;;;;;;0.63;0.43;;;9.10;15.70;;;;;;4851651;29;20084;-72
2021/01/22 02:25:40;;;;;;;1.00;0.45;;;8.90;15.90;;;;;;4858290;29;20054;-71
2021/01/22 02:28:12;;;;;;;2.42;0.70;;;9.10;15.20;;;;;;4858177;29;20417;-74
2021/01/22 02:30:41;;;;;;;0.82;0.43;;;9.10;15.20;;;;;;4858106;29;20068;-73
2021/01/22 02:33:10;;;;;;;3.40;0.60;;;9.10;14.60;;;;;;4855245;29;20261;-73
2021/01/22 02:35:38;;;;;;;3.05;0.70;;;9.10;14.50;;;;;;4856885;29;20083;-71
2021/01/22 02:38:06;;;;;;;2.45;0.50;;;9.30;13.80;;;;;;4855434;29;20519;-72
2021/01/22 02:40:36;;;;;;;3.45;0.60;;;9.30;13.00;;;;;;4857574;29;20053;-71
2021/01/22 02:43:04;;;;;;;1.75;0.70;;;9.30;13.40;;;;;;4854227;29;20045;-72
2021/01/22 02:45:32;;;;;;;1.55;0.70;;;9.20;13.80;;;;;;4854176;29;20057;-71
2021/01/22 02:48:00;;;;;;;2.13;0.70;;;9.30;13.30;;;;;;4854461;29;20072;-72
2021/01/22 02:50:31;;;;;;;1.02;0.52;;;9.30;13.40;;;;;;4858349;29;20394;-72
2021/01/22 02:53:00;;;;;;;1.00;0.50;;;9.20;13.80;;;;;;4853343;29;20144;-71
2021/01/22 02:55:28;;;;;;;4.05;1.08;;;9.20;13.40;;;;;;4856103;29;20076;-72
2021/01/22 02:57:59;;;;;;;3.55;0.80;;;9.20;13.30;;;;;;4855867;29;20060;-73
2021/01/22 03:00:32;;;;;;;3.00;0.80;;;9.10;13.40;;;;;;4861016;29;20061;-73
2021/01/22 03:03:06;;;;;;;2.90;1.00;;;9.10;13.50;;;;;;4860706;29;20144;-72
2021/01/22 03:05:37;;;;;;;2.78;1.17;;;9.20;12.80;;;;;;4863143;29;20505;-73
2021/01/22 03:08:08;;;;;;;3.22;0.93;;;9.20;13.10;;;;;;4862278;29;20775;-72
2021/01/22 03:10:37;;;;;;;4.10;1.38;;;9.10;13.30;;;;;;4862397;29;20057;-73
2021/01/22 03:13:05;;;;;;;3.47;0.85;;;8.90;13.90;;;;;;4860249;29;20052;-71
2021/01/22 03:15:34;;;;;;;4.07;0.80;;;9.00;13.40;;;;;;4862892;29;20140;-71
2021/01/22 03:18:13;;;;;;;4.05;0.95;;;9.10;12.90;;;;;;4861165;29;20053;-71
2021/01/22 03:20:42;;;;;;;2.63;0.70;;;9.00;12.90;;;;;;4862244;29;20058;-71
2021/01/22 03:23:09;;;;;;;2.75;1.10;;;8.90;13.00;;;;;;4859065;29;20049;-70
2021/01/22 03:25:36;;;;;;;5.25;0.90;;;8.80;13.30;;;;;;4866739;29;20053;-71
2021/01/22 03:28:04;;;;;;;2.35;0.90;;;8.80;13.00;;;;;;4861292;29;20435;-73
2021/01/22 03:30:31;;;;;;;2.35;0.80;;;9.00;12.30;;;;;;4864936;29;20053;-71
2021/01/22 03:32:58;;;;;;;2.65;1.10;;;8.80;12.90;;;;;;4860430;29;20085;-71
2021/01/22 03:35:26;;;;;;;4.05;1.20;;;8.70;13.00;;;;;;4865947;29;20054;-71
2021/01/22 03:37:54;;;;;;;2.65;1.05;;;8.80;13.20;;;;;;4862859;29;20060;-70
2021/01/22 03:40:21;;;;;;;2.42;1.10;;;8.70;13.40;;;;;;4863294;29;20065;-71
2021/01/22 03:42:47;;;;;;;2.40;1.17;;;8.70;13.30;;;;;;4861334;29;20170;-70
2021/01/22 03:45:16;;;;;;;3.10;1.00;;;8.60;13.40;;;;;;4865568;29;20056;-71
2021/01/22 03:47:43;;;;;;;3.80;0.70;;;8.70;13.50;;;;;;4865203;29;20066;-71
2021/01/22 03:50:11;;;;;;;3.55;0.68;;;8.60;13.10;;;;;;4863475;29;20049;-71
2021/01/22 03:52:40;;;;;;;4.03;0.82;;;8.80;12.80;;;;;;4860852;29;20408;-71
2021/01/22 03:55:08;;;;;;;4.32;1.05;;;8.70;12.80;;;;;;4863333;29;20060;-72
2021/01/22 03:57:35;;;;;;;2.33;0.90;;;8.70;13.20;;;;;;4857393;29;20053;-71
2021/01/22 04:00:05;;;;;;;2.38;0.73;;;8.70;13.10;;;;;;4861575;29;20060;-70
2021/01/22 04:02:32;;;;;;;4.50;1.00;;;8.80;12.80;;;;;;4858474;29;20049;-71
2021/01/22 04:04:59;;;;;;;4.95;0.93;;;8.70;12.80;;;;;;4864688;29;20106;-71
2021/01/22 04:07:26;;;;;;;3.72;0.90;;;8.60;12.90;;;;;;4862432;29;20053;-70
2021/01/22 04:09:54;;;;;;;4.78;1.23;;;8.70;12.60;;;;;;4862048;29;20053;-71
2021/01/22 04:12:20;;;;;;;3.33;1.00;;;8.70;13.20;;;;;;4857170;29;20057;-71
2021/01/22 04:14:47;;;;;;;2.72;0.95;;;8.70;12.80;;;;;;4860803;29;20056;-71
2021/01/22 04:17:14;;;;;;;4.93;1.25;;;8.70;13.00;;;;;;4861160;29;20141;-72
2021/01/22 04:19:43;;;;;;;2.03;0.98;;;8.60;13.30;;;;;;4860359;29;20053;-72
2021/01/22 04:22:10;;;;;;;3.83;0.75;;;8.50;13.90;;;;;;4854231;29;20067;-72
2021/01/22 04:24:37;;;;;;;7.07;1.05;;;8.40;14.40;;;;;;4857339;29;20050;-71
2021/01/22 04:27:05;;;;;;;4.68;0.88;;;8.50;13.90;;;;;;4860214;29;20064;-71
2021/01/22 04:29:32;;;;;;;2.88;0.82;;;8.50;13.90;;;;;;4857017;29;20505;-71
2021/01/22 04:31:59;;;;;;;3.63;1.25;;;8.60;13.10;;;;;;4858029;29;20152;-69
2021/01/22 04:34:26;;;;;;;4.97;1.00;;;8.60;13.10;;;;;;4859648;29;20051;-72
2021/01/22 04:36:53;;;;;;;3.80;1.08;;;8.50;13.30;;;;;;4860166;29;20063;-73
2021/01/22 04:39:20;;;;;;;2.25;0.70;;;8.50;13.30;;;;;;4858708;29;20049;-72
2021/01/22 04:41:47;;;;;;;6.03;1.20;;;8.50;12.80;;;;;;4860532;29;20066;-72
2021/01/22 04:44:15;;;;;;;2.22;1.00;;;8.60;12.50;;;;;;4857916;29;20056;-73
2021/01/22 04:46:44;;;;;;;1.77;0.68;;;8.50;12.50;;;;;;4859379;29;20049;-71
2021/01/22 04:49:12;;;;;;;3.03;1.00;;;8.50;11.90;;;;;;4861390;29;20083;-71
2021/01/22 04:51:39;;;;;;;2.28;1.20;;;8.60;11.80;;;;;;4858565;29;20057;-69
2021/01/22 04:54:10;;;;;;;3.20;1.38;;;8.50;11.70;;;;;;4854381;29;20398;-71
2021/01/22 04:56:39;;;;;;;3.70;0.95;;;8.60;11.30;;;;;;4859374;29;20052;-72
2021/01/22 04:59:14;;;;;;;3.42;1.20;;;8.50;11.20;;;;;;4859339;29;20262;-71
2021/01/22 05:01:45;;;;;;;2.88;1.00;;;8.50;11.20;;;;;;4857548;29;20133;-71
2021/01/22 05:04:13;;;;;;;6.97;2.20;;;8.50;11.20;;;;;;4856196;29;20518;-71
2021/01/22 05:06:40;;;;;;;2.75;0.82;;;8.60;11.30;;;;;;4858179;29;20056;-70
2021/01/22 05:09:07;;;;;;;6.80;1.00;;;8.60;11.20;;;;;;4857411;29;20109;-71
2021/01/22 05:11:35;;;;;;;5.22;1.65;;;8.60;10.50;;;;;;4861013;29;20049;-71
2021/01/22 05:14:02;;;;;;;2.72;1.05;;;8.70;9.70;;;;;;4856557;29;20068;-71
2021/01/22 05:16:29;;;;;;;3.30;0.90;;;8.60;10.40;;;;;;4859328;29;20053;-72
2021/01/22 05:18:57;;;;;;;5.70;1.02;;;8.60;10.20;;;;;;4858351;29;20056;-69
2021/01/22 05:21:39;;;;;;;3.45;0.70;;;8.70;10.40;;;;;;4863383;29;20059;-71
2021/01/22 05:24:19;;;;;;;3.10;0.98;;;8.70;10.30;;;;;;4850494;29;20519;-71
2021/01/22 05:26:46;;;;;;;2.17;1.05;;;8.70;10.30;;;;;;4855858;29;20057;-72
2021/01/22 05:29:15;;;;;;;2.50;0.73;;;8.60;11.30;;;;;;4859141;29;20057;-72
2021/01/22 05:31:42;;;;;;;2.72;0.52;;;8.50;11.20;;;;;;4856821;29;20147;-72
2021/01/22 05:34:09;;;;;;;3.15;1.10;;;8.60;11.30;;;;;;4852554;29;20578;-71
2021/01/22 05:36:37;;;;;;;1.17;0.60;;;8.60;11.30;;;;;;4856158;29;20067;-71
2021/01/22 05:39:05;;;;;;;2.38;0.68;;;8.60;11.30;;;;;;4855895;29;20433;-71
2021/01/22 05:41:32;;;;;;;1.45;0.70;;;8.50;11.40;;;;;;4857772;29;20050;-71
2021/01/22 05:43:59;;;;;;;1.35;0.82;;;8.50;11.70;;;;;;4854350;29;20046;-71
2021/01/22 05:46:28;;;;;;;1.25;0.70;;;8.50;11.90;;;;;;4855275;29;20080;-73
2021/01/22 05:49:10;;;;;;;1.45;0.55;;;8.50;12.20;;;;;;4853668;29;20109;-69
2021/01/22 05:51:36;;;;;;;1.52;0.40;;;8.50;12.30;;;;;;4853007;29;20053;-70
2021/01/22 05:54:05;;;;;;;0.77;0.50;;;8.60;12.30;;;;;;4853390;29;20125;-72
2021/01/22 05:56:32;;;;;;;1.10;0.50;;;8.60;12.40;;;;;;4856904;29;20512;-71
2021/01/22 05:59:12;;;;;;;1.20;0.50;;;8.70;12.10;;;;;;4855212;29;20053;-72
2021/01/22 06:01:40;;;;;;;2.17;0.60;;;8.60;12.70;;;;;;4858363;29;20080;-72
2021/01/22 06:04:08;;;;;;;1.67;0.40;;;8.60;12.30;;;;;;4856264;29;20063;-72
2021/01/22 06:06:36;;;;;;;2.17;0.40;;;8.70;12.30;;;;;;4850886;29;20050;-73
2021/01/22 06:09:05;;;;;;;0.95;0.32;;;8.70;12.50;;;;;;4858944;29;20061;-72
2021/01/22 06:11:33;;;;;;;1.15;0.40;;;8.60;12.20;;;;;;4858454;29;20055;-72
2021/01/22 06:14:04;;;;;;;1.15;0.55;;;8.70;12.40;;;;;;4852979;29;20528;-73
2021/01/22 06:16:31;;;;;;;1.48;0.43;;;8.70;12.00;;;;;;4855753;29;20525;-70
2021/01/22 06:19:00;;;;;;;1.85;0.60;;;8.70;12.50;;;;;;4859103;29;20069;-70
2021/01/22 06:21:30;;;;;;;1.52;0.90;;;8.70;12.10;;;;;;4857398;29;20054;-71
2021/01/22 06:24:00;;;;;;;0.82;0.40;;;8.90;11.40;;;;;;4857089;29;20100;-71
2021/01/22 06:26:29;;;;;;;1.80;0.40;;;8.80;12.00;;;;;;4855795;29;20061;-73
2021/01/22 06:29:01;;;;;;;1.83;0.50;;;8.80;12.20;;;;;;4859553;29;20053;-74
2021/01/22 06:31:29;;;;;;;2.05;0.85;;;8.70;12.60;;;;;;4859984;29;20057;-70
2021/01/22 06:33:57;;;;;;;1.25;0.60;;;8.60;13.10;;;;;;4857569;29;20796;-73
2021/01/22 06:36:24;;;;;;;1.63;0.70;;;8.60;12.90;;;;;;4858610;29;20523;-70
2021/01/22 06:38:52;;;;;;;2.05;0.68;;;8.70;12.70;;;;;;4857980;29;20059;-71
2021/01/22 06:41:24;;;;;;;2.83;0.50;;;8.70;12.30;;;;;;4859618;29;20153;-70
2021/01/22 06:43:52;;;;;;;2.03;0.65;;;8.60;12.90;;;;;;4854329;29;20057;-73
2021/01/22 06:46:21;;;;;;;3.90;0.70;;;8.70;12.50;;;;;;4858681;29;20053;-72
2021/01/22 06:48:53;;;;;;;2.88;0.40;;;8.70;12.70;;;;;;4857341;29;20428;-71
2021/01/22 06:51:21;;;;;;;2.17;0.50;;;8.60;12.70;;;;;;4857660;29;20078;-70
2021/01/22 06:54:08;;;;;;;1.83;0.40;;;8.60;13.00;;;;;;4858867;29;20063;-71
2021/01/22 06:56:38;;;;;;;5.05;0.65;;;8.70;12.80;;;;;;4858127;29;20072;-71
2021/01/22 06:59:34;;;;;;;4.57;1.10;;;8.70;12.00;;;;;;4853117;29;20061;-70
2021/01/22 07:02:03;;;;;;;2.08;0.63;;;8.70;12.10;;;;;;4856832;29;20105;-73
2021/01/22 07:04:41;;;;;;;1.88;0.40;;;8.70;12.20;;;;;;4859159;29;20449;-70
2021/01/22 07:07:08;;;;;;;2.33;0.47;;;8.70;12.10;;;;;;4860522;29;20077;-70
2021/01/22 07:09:51;;;;;;;2.10;0.50;;;8.60;12.30;;;;;;4859705;29;20053;-72
2021/01/22 07:12:39;;;;;;;2.78;0.43;;;8.60;12.30;;;;;;4855169;29;20061;-70
2021/01/22 07:15:29;;;;;;;2.60;0.63;;;8.50;12.40;;;;;;4856634;29;20072;-70
2021/01/22 07:17:58;;;;;;;2.42;0.73;;;8.70;11.90;;;;;;4856951;29;20568;-70
2021/01/22 07:20:28;;;;;;;5.65;0.80;;;8.70;11.30;;;;;;4855338;29;20065;-70
2021/01/22 07:22:56;;;;;;;1.33;0.40;;;8.80;11.40;;;;;;4855552;29;20420;-73
2021/01/22 07:25:32;;;;;;;1.95;0.60;;;8.70;11.40;;;;;;4858230;29;20045;-70
2021/01/22 07:28:05;;;;;;;3.17;0.70;;;8.70;11.30;;;;;;4858735;29;20350;-72
2021/01/22 07:30:40;;;;;;;1.00;0.35;;;8.80;11.40;;;;;;4859706;29;20050;-70
2021/01/22 07:33:25;;;;;;;;;;;8.70;11.30;;;;;;4854024;29;20045;-70
2021/01/22 07:36:04;;;;;;;3.45;0.65;;;8.80;11.40;;;;;;4855538;29;19939;-70
2021/01/22 07:38:32;;;;;;;2.33;0.75;;;8.90;11.40;;;;;;4856539;29;20056;-70
2021/01/22 07:40:59;;;;;;;2.25;0.60;;;8.80;11.40;;;;;;4858037;29;20531;-69
2021/01/22 07:43:28;;;;;;;0.90;0.60;;;8.90;11.40;;;;;;4856785;29;20049;-70
2021/01/22 07:46:05;;;;;;;2.33;0.60;;;9.00;10.50;;;;;;4857435;29;20389;-70
2021/01/22 07:48:33;;;;;;;4.22;0.82;;;9.00;10.10;;;;;;4864966;29;20173;-71
2021/01/22 07:51:00;;;;;;;2.38;0.50;;;9.00;10.30;;;;;;4859242;29;20061;-70
2021/01/22 07:53:29;;;;;;;3.17;0.80;;;9.00;10.20;;;;;;4854060;29;20144;-70
2021/01/22 07:55:56;;;;;;;3.72;1.15;;;9.00;10.10;;;;;;4863051;29;20053;-71
2021/01/22 07:58:23;;;;;;;4.68;0.93;;;9.10;9.80;;;;;;4859568;29;20053;-71
2021/01/22 08:00:50;;;;;;;2.05;1.15;;;9.10;9.90;;;;;;4860018;29;20437;-74
2021/01/22 08:03:17;;;;;;;2.25;0.60;;;9.20;9.60;;;;;;4862158;29;20057;-70
2021/01/22 08:05:45;;;;;;;2.47;1.15;;;9.20;9.30;;;;;;4860982;29;20057;-70
2021/01/22 08:08:19;;;;;;;1.77;0.75;;;9.30;9.00;;;;;;4863160;29;20061;-70
2021/01/22 08:10:46;;;;;;;2.70;1.00;;;9.40;8.30;;;;;;4866759;29;20053;-71
2021/01/22 08:13:15;;;;;;;4.60;0.73;;;9.40;8.40;;;;;;4857636;29;20063;-71
2021/01/22 08:15:43;;;;;;;2.47;0.90;;;9.40;8.10;;;;;;4860650;29;20137;-71
2021/01/22 08:18:13;;;;;;;2.53;0.73;;;9.50;8.10;;;;;;4862051;29;20056;-71
2021/01/22 08:20:49;;;;;;;9.95;0.75;;;9.60;7.60;;;;;;4864106;29;20057;-70
2021/01/22 08:23:21;;;;;;;3.08;0.80;;;9.60;7.50;;;;;;4855262;29;20259;-71
2021/01/22 08:25:47;;;;;;;1.52;0.68;;;9.60;7.80;;;;;;4859907;29;20061;-71
2021/01/22 08:28:15;;;;;;;10.90;1.23;;;9.60;7.60;;;;;;4858401;29;20057;-70
2021/01/22 08:30:43;;;;;;;9.50;1.08;;;9.70;7.70;;;;;;4860162;29;20057;-70
2021/01/22 08:33:11;;;;;;;2.83;0.82;;;9.70;7.50;;;;;;4856926;29;20045;-71
2021/01/22 08:35:39;;;;;;;2.38;0.70;;;9.80;7.60;;;;;;4865074;29;20066;-71
2021/01/22 08:38:07;;;;;;;2.72;0.70;;;9.80;7.70;;;;;;4855009;29;20059;-70
2021/01/22 08:40:38;;;;;;;2.80;0.82;;;9.90;7.40;;;;;;4861146;29;20059;-69
2021/01/22 08:43:08;;;;;;;3.88;0.80;;;9.90;6.70;;;;;;4858647;29;20491;-71
2021/01/22 08:45:35;;;;;;;6.25;2.28;;;10.00;6.20;;;;;;4862748;29;20065;-71
2021/01/22 08:48:03;;;;;;;4.00;1.00;;;10.00;6.00;;;;;;4859835;29;20137;-71
2021/01/22 08:50:31;;;;;;;2.15;0.80;;;10.00;5.90;;;;;;4858777;29;20053;-73
2021/01/22 08:53:09;;;;;;;1.33;0.50;;;10.10;5.70;;;;;;4855763;29;20059;-74
2021/01/22 08:55:37;;;;;;;3.55;0.80;;;10.20;5.50;;;;;;4858946;29;20052;-72
2021/01/22 08:58:05;;;;;;;3.40;1.30;;;10.20;5.50;;;;;;4860385;29;20057;-70
2021/01/22 09:00:32;;;;;;;4.40;0.85;;;10.30;4.70;;;;;;4861504;29;20057;-69
2021/01/22 09:03:00;;;;;;;2.40;0.80;;;10.40;4.30;;;;;;4860098;29;20417;-68
2021/01/22 09:05:28;;;;;;;2.67;1.20;;;10.50;4.40;;;;;;4860393;29;20041;-69
2021/01/22 09:08:06;;;;;;;3.72;1.17;;;10.50;4.40;;;;;;4859914;29;20520;-70
2021/01/22 09:10:33;;;;;;;3.00;1.00;;;10.50;4.40;;;;;;4858441;29;20053;-73
2021/01/22 09:13:12;;;;;;;5.38;1.20;;;10.50;4.10;;;;;;4858762;29;20420;-71
2021/01/22 09:15:40;;;;;;;8.18;1.10;;;10.50;3.70;;;;;;4859841;29;20053;-70
2021/01/22 09:18:17;;;;;;;3.92;1.20;;;10.50;4.50;;;;;;4856471;29;20052;-71
2021/01/22 09:20:56;;;;;;;6.80;1.38;;;10.50;3.80;;;;;;4861696;29;20049;-70
2021/01/22 09:23:24;;;;;;;2.08;1.00;;;10.50;4.30;;;;;;4858907;29;20049;-72
2021/01/22 09:25:50;;;;;;;4.43;1.08;;;10.50;3.80;;;;;;4861211;29;20073;-71
2021/01/22 09:28:17;;;;;;;4.57;0.80;;;10.50;4.10;;;;;;4862635;29;20416;-71
2021/01/22 09:30:44;;;;;;;3.42;1.05;;;10.60;3.30;;;;;;4860205;29;20061;-72
2021/01/22 09:33:11;;;;;;;7.03;1.30;;;10.50;3.70;;;;;;4856545;29;20075;-72
2021/01/22 09:35:38;;;;;;;4.35;0.90;;;10.70;3.10;;;;;;4858203;29;20182;-70
2021/01/22 09:38:05;;;;;;;5.32;0.90;;;10.70;2.90;;;;;;4858039;29;20654;-71
2021/01/22 09:40:34;;;;;;;4.90;0.80;;;10.80;3.00;;;;;;4858489;29;20065;-72
2021/01/22 09:43:03;;;;;;;5.53;1.10;;;10.90;2.30;;;;;;4856568;29;20053;-71
2021/01/22 09:45:30;;;;;;;3.22;1.10;;;10.80;2.30;;;;;;4861524;29;20067;-73
2021/01/22 09:47:57;;;;;;;4.78;1.20;;;10.90;2.90;;;;;;4858822;29;20054;-69
2021/01/22 09:50:24;;;;;;;5.50;0.80;;;10.90;3.00;;;;;;4856075;29;20061;-72
2021/01/22 09:52:51;;;;;;;4.30;0.93;;;10.90;3.10;;;;;;4856574;29;20718;-71
2021/01/22 09:55:19;;;;;;;7.47;1.10;;;10.90;3.30;;;;;;4858805;29;20056;-71
2021/01/22 09:57:47;;;;;;;3.58;1.45;;;10.90;3.60;;;;;;4854970;29;20073;-73
2021/01/22 10:00:15;;;;;;;3.58;1.10;;;10.90;3.60;;;;;;4858079;29;21317;-70
2021/01/22 10:02:43;;;;;;;4.28;1.05;;;10.90;3.30;;;;;;4851155;29;20058;-70
2021/01/22 10:05:11;;;;;;;9.77;0.93;;;10.90;3.20;;;;;;4855656;29;20053;-72
2021/01/22 10:07:39;;;;;;;5.95;1.30;;;10.90;3.40;;;;;;4856325;29;20061;-70
2021/01/22 10:10:07;;;;;;;6.72;1.33;;;10.90;3.10;;;;;;4856867;29;20068;-70
2021/01/22 10:12:34;;;;;;;4.80;1.55;;;10.90;3.50;;;;;;4854124;29;20678;-69
2021/01/22 10:15:04;;;;;;;4.22;1.55;;;11.00;2.80;;;;;;4859443;29;20053;-72
2021/01/22 10:17:32;;;;;;;9.68;1.45;;;11.10;2.80;;;;;;4854773;29;20061;-69
2021/01/22 10:19:59;;;;;;;3.50;1.17;;;11.20;2.20;;;;;;4858569;29;20053;-71
2021/01/22 10:22:26;;;;;;;4.97;1.10;;;11.40;1.90;;;;;;4857250;29;20407;-73
2021/01/22 10:24:53;;;;;;;6.90;1.08;;;11.40;1.60;;;;;;4857473;29;20045;-73
2021/01/22 10:27:20;;;;;;;2.42;0.80;;;11.50;1.30;;;;;;4854306;29;20110;-73
2021/01/22 10:29:47;;;;;;;1.65;0.73;;;11.60;1.00;;;;;;4858430;29;20054;-74
2021/01/22 10:32:16;;;;;;;2.65;0.98;;;11.60;1.00;;;;;;4861426;29;20518;-71
2021/01/22 10:34:43;;;;;;;8.02;1.42;;;11.70;1.00;;;;;;4857854;29;20521;-73
2021/01/22 10:37:10;;;;;;;7.55;1.38;;;11.80;1.00;;;;;;4860168;29;20121;-76
2021/01/22 10:39:37;;;;;;;6.13;1.05;;;11.80;1.00;;;;;;4854093;29;20074;-73
2021/01/22 10:42:03;;;;;;;3.88;1.35;;;11.90;1.00;;;;;;4857976;29;20060;-73
2021/01/22 10:44:30;;;;;;;6.60;1.10;;;11.90;1.00;;;;;;4858190;29;20070;-73
2021/01/22 10:46:57;;;;;;;3.83;1.10;;;12.00;1.00;;;;;;4862657;29;20072;-73
2021/01/22 10:49:25;;;;;;;3.17;1.10;;;12.10;1.00;;;;;;4859219;29;20417;-72
2021/01/22 10:51:52;;;;;;;3.28;0.98;;;12.20;1.00;;;;;;4860110;29;20057;-73
2021/01/22 10:54:19;;;;;;;4.85;1.00;;;12.40;1.00;;;;;;4857907;29;20053;-71
2021/01/22 10:56:45;;;;;;;2.38;0.82;;;12.40;1.00;;;;;;4859908;29;20057;-74
2021/01/22 10:59:12;;;;;;;4.53;1.00;;;12.60;1.00;;;;;;4856643;29;20080;-72
2021/01/22 11:01:39;;;;;;;19.00;1.10;;;12.60;1.00;;;;;;4856720;29;20049;-76
2021/01/22 11:04:06;;;;;;;4.88;1.13;;;12.70;1.00;;;;;;4854952;29;20507;-72
2021/01/22 11:06:34;;;;;;;4.88;2.08;;;12.70;1.00;;;;;;4858324;29;20056;-73
2021/01/22 11:09:03;;;;;;;2.97;0.85;;;12.80;1.00;;;;;;4854784;29;20143;-73
2021/01/22 11:11:30;;;;;;;8.10;1.10;;;12.90;1.00;;;;;;4859833;29;20062;-74
2021/01/22 11:13:57;;;;;;;2.30;1.20;;;12.80;1.00;;;;;;4863250;29;20053;-73
2021/01/22 11:16:24;;;;;;;2.47;0.80;;;12.90;1.00;;;;;;4869250;29;20514;-73
2021/01/22 11:18:50;;;;;;;3.70;0.90;;;12.90;1.00;;;;;;4865407;29;20057;-73
2021/01/22 11:21:17;;;;;;;4.43;1.40;;;12.90;1.00;;;;;;4858781;29;20064;-74
2021/01/22 11:23:45;;;;;;;4.18;0.80;;;13.00;1.00;;;;;;4859749;29;20053;-74
2021/01/22 11:26:12;;;;;;;5.78;1.20;;;12.90;1.00;;;;;;4860146;29;20436;-73
2021/01/22 11:28:39;;;;;;;2.45;1.00;;;12.80;1.00;;;;;;4859837;29;20424;-73
2021/01/22 11:31:06;;;;;;;3.30;1.00;;;12.80;1.00;;;;;;4861760;29;20064;-77
2021/01/22 11:33:32;;;;;;;3.22;0.80;;;12.80;1.00;;;;;;4860371;29;20136;-71
2021/01/22 11:36:01;;;;;;;3.88;1.05;;;12.70;1.00;;;;;;4859453;29;20045;-73
2021/01/22 11:38:28;;;;;;;5.05;1.05;;;12.60;1.00;;;;;;4861907;29;20056;-72
2021/01/22 11:40:56;;;;;;;1.00;0.68;;;12.60;1.00;;;;;;4866158;29;20485;-77
2021/01/22 11:43:22;;;;;;;2.65;0.63;;;12.50;1.00;;;;;;4858343;29;20051;-72
2021/01/22 11:45:49;;;;;;;2.60;0.80;;;12.60;1.00;;;;;;4862614;29;20068;-72
2021/01/22 11:48:16;;;;;;;3.63;1.05;;;12.60;1.00;;;;;;4861625;29;20058;-72
2021/01/22 11:50:43;;;;;;;1.45;0.73;;;12.70;1.00;;;;;;4858523;29;20424;-75
2021/01/22 11:53:10;;;;;;;4.93;1.50;;;12.80;1.00;;;;;;4858875;29;20065;-71
2021/01/22 11:55:40;;;;;;;2.17;0.70;;;12.80;1.00;;;;;;4861655;29;20053;-73
2021/01/22 11:58:07;;;;;;;1.10;0.73;;;12.70;1.00;;;;;;4861573;29;20449;-71
2021/01/22 12:00:34;;;;;;;2.67;0.90;;;12.80;1.00;;;;;;4865932;29;20056;-71
2021/01/22 12:03:02;;;;;;;2.17;0.70;;;12.80;1.00;;;;;;4863800;29;20142;-74
2021/01/22 12:05:29;;;;;;;4.60;1.33;;;12.90;1.00;;;;;;4864057;29;20474;-71
2021/01/22 12:07:56;;;;;;;1.65;0.68;;;12.90;1.00;;;;;;4865824;29;20057;-72
2021/01/22 12:10:23;;;;;;;1.92;0.95;;;12.90;1.00;;;;;;4862034;29;20141;-70
2021/01/22 12:12:50;;;;;;;6.10;1.10;;;13.00;1.00;;;;;;4859711;29;20064;-72
2021/01/22 12:15:18;;;;;;;6.88;1.25;;;13.00;1.00;;;;;;4860449;29;20793;-71
2021/01/22 12:17:46;;;;;;;4.25;0.90;;;13.10;1.00;;;;;;4858368;29;20053;-71
2021/01/22 12:20:14;;;;;;;4.28;0.90;;;13.10;1.00;;;;;;4859976;29;20045;-71
2021/01/22 12:22:41;;;;;;;3.72;1.67;;;13.10;1.00;;;;;;4858220;29;20049;-71
2021/01/22 12:25:09;;;;;;;1.73;0.80;;;13.10;1.00;;;;;;4858226;29;20493;-71
2021/01/22 12:27:35;;;;;;;6.60;1.00;;;13.10;1.00;;;;;;4859937;29;20053;-71
2021/01/22 12:30:03;;;;;;;4.95;1.05;;;13.20;1.00;;;;;;4859441;29;20493;-71
2021/01/22 12:32:31;;;;;;;1.88;1.00;;;13.20;1.00;;;;;;4856076;29;20057;-71
2021/01/22 12:34:58;;;;;;;6.75;0.93;;;13.20;1.00;;;;;;4858735;29;20519;-70
2021/01/22 12:37:27;;;;;;;1.30;1.00;;;13.10;1.00;;;;;;4859768;29;20056;-71
2021/01/22 12:39:54;;;;;;;3.35;0.90;;;13.10;1.00;;;;;;4861122;29;20139;-71
2021/01/22 12:42:21;;;;;;;1.95;0.70;;;13.10;1.00;;;;;;4860819;29;20057;-69
2021/01/22 12:44:47;;;;;;;7.13;1.13;;;13.10;1.00;;;;;;4861745;29;20059;-71
2021/01/22 12:47:14;;;;;;;2.92;0.95;;;13.10;1.00;;;;;;4859859;29;20056;-71
2021/01/22 12:49:42;;;;;;;3.78;0.95;;;13.10;1.00;;;;;;4864257;29;20057;-70
2021/01/22 12:52:09;;;;;;;4.82;0.73;;;13.10;1.00;;;;;;4856047;29;20063;-71
2021/01/22 12:54:36;;;;;;;6.05;1.33;;;13.10;1.00;;;;;;4857566;29;20412;-72
2021/01/22 12:57:03;;;;;;;1.90;0.82;;;13.00;1.00;;;;;;4858810;29;20132;-72
2021/01/22 12:59:30;;;;;;;3.30;1.15;;;13.00;1.00;;;;;;4859538;29;20046;-72
2021/01/22 13:01:57;;;;;;;4.88;0.82;;;13.00;1.00;;;;;;4855287;29;20558;-71
2021/01/22 13:04:24;;;;;;;3.53;1.40;;;13.00;1.00;;;;;;4858598;29;20054;-71
2021/01/22 13:06:52;;;;;;;5.00;1.20;;;13.00;1.00;;;;;;4858471;29;20076;-71